Bergamot Ace — ZGAS5 — position and weather

sailwx.info

Track history (hours):
 
Tides and Currents Weather Stations Pressure Air Temp Water Temp Dewpoint Dewpoint Depression Visibility Wind Speed Wind Dir Waves Ship Positions

Bergamot Ace

Last reported at 2016-Sep-13 07:34 UTC. Time now 2016-Sep-28 00:09 UTC.
Position N 35°12' E 139°46'.
Warning: this ship's position is 14 days out of date.

Length 186 m; draft 6.7 m.

Type: Cargo ship. MMSI: 319740000.

Date/timePositionNaut miles runAvg speedWind from/ knotsBaromVisibWave heightAir tempDewpointWater temp
2016-Sep-13 07:34N 35°12' E 139°46'1212.5
2016-Sep-13 06:34N 35°25' E 139°43'4 1.8
2016-Sep-13 04:33N 35°28' E 139°42'0 0.0
2016-Sep-13 02:33N 35°28' E 139°42'0 0.0
2016-Sep-12 23:33N 35°28' E 139°42'4 1.8
2016-Sep-12 21:34N 35°26' E 139°46'2010.2
2016-Sep-12 19:33N 35°06' E 139°45'12 6.2
2016-Sep-12 17:33N 34°54' E 139°42'16 5.4
2016-Sep-12 14:33N 34°49' E 140°01'10 9.6
2016-Sep-12 13:33N 34°53' E 140°11'1110.5
2016-Sep-12 12:32N 34°58' E 140°23'  
Track history (hours):
 
Tides and Currents Weather Stations Pressure Air Temp Water Temp Dewpoint Dewpoint Depression Visibility Wind Speed Wind Dir Waves Ship Positions

Bergamot Ace

Last reported at 2016-Sep-13 07:34 UTC. Time now 2016-Sep-28 00:09 UTC.
Position N 35°12' E 139°46'.
Warning: this ship's position is 14 days out of date.

Length 186 m; draft 6.7 m.

Type: Cargo ship. MMSI: 319740000.

Date/timePositionNaut miles runAvg speedWind from/ knotsBaromVisibWave heightAir tempDewpointWater temp
2016-Sep-13 07:34N 35°12' E 139°46'1212.5
2016-Sep-13 06:34N 35°25' E 139°43'4 1.8
2016-Sep-13 04:33N 35°28' E 139°42'0 0.0
2016-Sep-13 02:33N 35°28' E 139°42'0 0.0
2016-Sep-12 23:33N 35°28' E 139°42'4 1.8
2016-Sep-12 21:34N 35°26' E 139°46'2010.2
2016-Sep-12 19:33N 35°06' E 139°45'12 6.2
2016-Sep-12 17:33N 34°54' E 139°42'16 5.4
2016-Sep-12 14:33N 34°49' E 140°01'10 9.6
2016-Sep-12 13:33N 34°53' E 140°11'1110.5
2016-Sep-12 12:32N 34°58' E 140°23'  

Dump ship's entire track history